Weather at Aba Tenna Dejazmach Yilma International Airport

Public forecast

Using degrees Celsius for public forecast. Weather courtesy of forecast.io.

Closest aviation weather report (METAR) to Aba Tenna Dejazmach Yilma International Airport

Closest report is Djibouti-Ambouli Airport, 138.8 nm (257.0 km) NNE.

2024/05/28 02:00 (retrieved 1 hour ago)

HDAM 280200Z 02003KT 8000 HZ SKC 30/26 Q1005

Aviation forecast (TAF) for Aba Tenna Dejazmach Yilma International Airport

Forecast is more than 12 hours old.

2024/05/27 06:20 (retrieved 21 hours ago)

TAF HAAB 270330Z 2706/2812 34006KT 9999 SCT030 FEW100 TAF HADR 270330Z 2706/2812 16006KT 9999 FEW026 FEW120